sensor_id;sensor_type;location;lat;lon;timestamp;temperature;humidity
10263;DHT22;5177;50.068;8.156;2022-09-09T00:00:38;17.30;99.90
10263;DHT22;5177;50.068;8.156;2022-09-09T00:03:50;17.20;99.90
10263;DHT22;5177;50.068;8.156;2022-09-09T00:06:05;17.20;99.90
10263;DHT22;5177;50.068;8.156;2022-09-09T00:09:16;17.20;99.90
10263;DHT22;5177;50.068;8.156;2022-09-09T00:11:26;17.20;99.90
10263;DHT22;5177;50.068;8.156;2022-09-09T00:13:53;17.10;99.90
10263;DHT22;5177;50.068;8.156;2022-09-09T00:16:22;17.10;99.90
10263;DHT22;5177;50.068;8.156;2022-09-09T00:21:26;17.00;99.90
10263;DHT22;5177;50.068;8.156;2022-09-09T00:23:55;17.00;99.90
10263;DHT22;5177;50.068;8.156;2022-09-09T00:31:23;16.90;99.90
10263;DHT22;5177;50.068;8.156;2022-09-09T00:33:49;16.90;99.90
10263;DHT22;5177;50.068;8.156;2022-09-09T00:36:17;16.90;99.90
10263;DHT22;5177;50.068;8.156;2022-09-09T00:38:47;16.90;99.90
10263;DHT22;5177;50.068;8.156;2022-09-09T00:41:17;16.90;99.90
10263;DHT22;5177;50.068;8.156;2022-09-09T00:43:44;16.80;99.90
10263;DHT22;5177;50.068;8.156;2022-09-09T00:51:22;16.70;99.90
10263;DHT22;5177;50.068;8.156;2022-09-09T00:54:00;16.70;99.90
10263;DHT22;5177;50.068;8.156;2022-09-09T00:56:41;16.70;99.90
10263;DHT22;5177;50.068;8.156;2022-09-09T01:01:35;16.60;99.90
10263;DHT22;5177;50.068;8.156;2022-09-09T01:04:00;16.60;99.90
10263;DHT22;5177;50.068;8.156;2022-09-09T01:06:32;16.60;99.90
10263;DHT22;5177;50.068;8.156;2022-09-09T01:09:07;16.60;99.90
10263;DHT22;5177;50.068;8.156;2022-09-09T01:16:46;16.60;99.90
10263;DHT22;5177;50.068;8.156;2022-09-09T01:19:15;16.60;99.90
10263;DHT22;5177;50.068;8.156;2022-09-09T01:21:55;16.60;99.90
10263;DHT22;5177;50.068;8.156;2022-09-09T01:24:25;16.70;99.90
10263;DHT22;5177;50.068;8.156;2022-09-09T01:26:54;16.60;99.90
10263;DHT22;5177;50.068;8.156;2022-09-09T01:29:21;16.60;99.90
10263;DHT22;5177;50.068;8.156;2022-09-09T01:31:55;16.60;99.90
10263;DHT22;5177;50.068;8.156;2022-09-09T01:34:21;16.50;99.90
10263;DHT22;5177;50.068;8.156;2022-09-09T01:36:57;16.40;99.90
10263;DHT22;5177;50.068;8.156;2022-09-09T01:39:24;16.40;99.90
10263;DHT22;5177;50.068;8.156;2022-09-09T01:41:50;16.40;99.90
10263;DHT22;5177;50.068;8.156;2022-09-09T01:44:15;16.30;99.90
10263;DHT22;5177;50.068;8.156;2022-09-09T01:46:41;16.30;99.90
10263;DHT22;5177;50.068;8.156;2022-09-09T01:49:06;16.30;99.90
10263;DHT22;5177;50.068;8.156;2022-09-09T01:51:32;16.30;99.90
10263;DHT22;5177;50.068;8.156;2022-09-09T01:53:58;16.30;99.90
10263;DHT22;5177;50.068;8.156;2022-09-09T02:03:47;16.10;99.90
10263;DHT22;5177;50.068;8.156;2022-09-09T02:06:21;16.10;99.90
10263;DHT22;5177;50.068;8.156;2022-09-09T02:08:50;16.10;99.90
10263;DHT22;5177;50.068;8.156;2022-09-09T02:11:18;16.00;99.90
10263;DHT22;5177;50.068;8.156;2022-09-09T02:13:44;16.00;99.90
10263;DHT22;5177;50.068;8.156;2022-09-09T02:18:48;16.00;99.90
10263;DHT22;5177;50.068;8.156;2022-09-09T02:21:15;16.00;99.90
10263;DHT22;5177;50.068;8.156;2022-09-09T02:23:42;16.00;99.90
10263;DHT22;5177;50.068;8.156;2022-09-09T02:26:08;16.00;99.90
10263;DHT22;5177;50.068;8.156;2022-09-09T02:28:35;16.10;99.90
10263;DHT22;5177;50.068;8.156;2022-09-09T02:31:02;16.10;99.90
10263;DHT22;5177;50.068;8.156;2022-09-09T02:33:28;16.20;99.90
10263;DHT22;5177;50.068;8.156;2022-09-09T02:35:55;16.20;99.90
10263;DHT22;5177;50.068;8.156;2022-09-09T02:38:27;16.20;99.90
10263;DHT22;5177;50.068;8.156;2022-09-09T02:40:54;16.10;99.90
10263;DHT22;5177;50.068;8.156;2022-09-09T02:43:19;16.10;99.90
10263;DHT22;5177;50.068;8.156;2022-09-09T02:45:51;16.00;99.90
10263;DHT22;5177;50.068;8.156;2022-09-09T02:48:21;16.00;99.90
10263;DHT22;5177;50.068;8.156;2022-09-09T02:53:24;16.00;99.90
10263;DHT22;5177;50.068;8.156;2022-09-09T02:58:45;15.90;99.90
10263;DHT22;5177;50.068;8.156;2022-09-09T03:01:11;15.90;99.90
10263;DHT22;5177;50.068;8.156;2022-09-09T03:03:37;15.90;99.90
10263;DHT22;5177;50.068;8.156;2022-09-09T03:06:03;15.90;99.90
10263;DHT22;5177;50.068;8.156;2022-09-09T03:08:30;15.90;99.90
10263;DHT22;5177;50.068;8.156;2022-09-09T03:10:58;15.80;99.90
10263;DHT22;5177;50.068;8.156;2022-09-09T03:13:23;15.80;99.90
10263;DHT22;5177;50.068;8.156;2022-09-09T03:15:50;15.80;99.90
10263;DHT22;5177;50.068;8.156;2022-09-09T03:18:16;15.80;99.90
10263;DHT22;5177;50.068;8.156;2022-09-09T03:20:42;15.80;99.90
10263;DHT22;5177;50.068;8.156;2022-09-09T03:23:08;15.80;99.90
10263;DHT22;5177;50.068;8.156;2022-09-09T03:25:34;15.80;99.90
10263;DHT22;5177;50.068;8.156;2022-09-09T03:28:01;15.80;99.90
10263;DHT22;5177;50.068;8.156;2022-09-09T03:30:27;15.90;99.90
10263;DHT22;5177;50.068;8.156;2022-09-09T03:32:52;15.90;99.90
10263;DHT22;5177;50.068;8.156;2022-09-09T03:35:18;15.90;99.90
10263;DHT22;5177;50.068;8.156;2022-09-09T03:37:44;15.90;99.90
10263;DHT22;5177;50.068;8.156;2022-09-09T03:40:10;15.90;99.90
10263;DHT22;5177;50.068;8.156;2022-09-09T03:42:36;15.90;99.90
10263;DHT22;5177;50.068;8.156;2022-09-09T03:45:05;15.90;99.90
10263;DHT22;5177;50.068;8.156;2022-09-09T03:47:31;15.90;99.90
10263;DHT22;5177;50.068;8.156;2022-09-09T03:49:57;16.00;99.90
10263;DHT22;5177;50.068;8.156;2022-09-09T03:52:22;16.00;99.90
10263;DHT22;5177;50.068;8.156;2022-09-09T03:54:50;16.00;99.90
10263;DHT22;5177;50.068;8.156;2022-09-09T03:57:16;16.10;99.90
10263;DHT22;5177;50.068;8.156;2022-09-09T03:59:42;16.10;99.90
10263;DHT22;5177;50.068;8.156;2022-09-09T04:02:08;16.10;99.90
10263;DHT22;5177;50.068;8.156;2022-09-09T04:04:34;16.20;99.90
10263;DHT22;5177;50.068;8.156;2022-09-09T04:06:59;16.20;99.90
10263;DHT22;5177;50.068;8.156;2022-09-09T04:09:25;16.20;99.90
10263;DHT22;5177;50.068;8.156;2022-09-09T04:11:50;16.20;99.90
10263;DHT22;5177;50.068;8.156;2022-09-09T04:14:16;16.20;99.90
10263;DHT22;5177;50.068;8.156;2022-09-09T04:16:42;16.20;99.90
10263;DHT22;5177;50.068;8.156;2022-09-09T04:19:10;16.20;99.90
10263;DHT22;5177;50.068;8.156;2022-09-09T04:21:37;16.20;99.90
10263;DHT22;5177;50.068;8.156;2022-09-09T04:24:05;16.20;99.90
10263;DHT22;5177;50.068;8.156;2022-09-09T04:26:30;16.20;99.90
10263;DHT22;5177;50.068;8.156;2022-09-09T04:28:56;16.20;99.90
10263;DHT22;5177;50.068;8.156;2022-09-09T04:31:22;16.20;99.90
10263;DHT22;5177;50.068;8.156;2022-09-09T04:33:49;16.10;99.90
10263;DHT22;5177;50.068;8.156;2022-09-09T04:36:14;16.10;99.90
10263;DHT22;5177;50.068;8.156;2022-09-09T04:38:40;16.00;99.90
10263;DHT22;5177;50.068;8.156;2022-09-09T04:41:06;16.00;99.90
10263;DHT22;5177;50.068;8.156;2022-09-09T04:43:31;16.10;99.90
10263;DHT22;5177;50.068;8.156;2022-09-09T04:45:57;16.10;99.90
10263;DHT22;5177;50.068;8.156;2022-09-09T04:48:24;16.00;99.90
10263;DHT22;5177;50.068;8.156;2022-09-09T04:50:54;16.00;99.90
10263;DHT22;5177;50.068;8.156;2022-09-09T04:53:19;16.00;99.90
10263;DHT22;5177;50.068;8.156;2022-09-09T04:55:45;15.90;99.90
10263;DHT22;5177;50.068;8.156;2022-09-09T04:58:11;16.00;99.90
10263;DHT22;5177;50.068;8.156;2022-09-09T05:00:37;16.00;99.90
10263;DHT22;5177;50.068;8.156;2022-09-09T05:03:03;16.10;99.90
10263;DHT22;5177;50.068;8.156;2022-09-09T05:05:29;16.00;99.90
10263;DHT22;5177;50.068;8.156;2022-09-09T05:08:00;16.10;99.90
10263;DHT22;5177;50.068;8.156;2022-09-09T05:10:25;16.00;99.90
10263;DHT22;5177;50.068;8.156;2022-09-09T05:12:52;16.10;99.90
10263;DHT22;5177;50.068;8.156;2022-09-09T05:15:18;16.10;99.90
10263;DHT22;5177;50.068;8.156;2022-09-09T05:17:43;16.10;99.90
10263;DHT22;5177;50.068;8.156;2022-09-09T05:20:09;16.20;99.90
10263;DHT22;5177;50.068;8.156;2022-09-09T05:22:34;16.20;99.90
10263;DHT22;5177;50.068;8.156;2022-09-09T05:25:00;16.20;99.90
10263;DHT22;5177;50.068;8.156;2022-09-09T05:27:26;16.20;99.90
10263;DHT22;5177;50.068;8.156;2022-09-09T05:29:52;16.10;99.90
10263;DHT22;5177;50.068;8.156;2022-09-09T05:32:17;16.10;99.90
10263;DHT22;5177;50.068;8.156;2022-09-09T05:34:43;16.10;99.90
10263;DHT22;5177;50.068;8.156;2022-09-09T05:37:08;16.10;99.90
10263;DHT22;5177;50.068;8.156;2022-09-09T05:39:34;16.10;99.90
10263;DHT22;5177;50.068;8.156;2022-09-09T05:42:02;16.20;99.90
10263;DHT22;5177;50.068;8.156;2022-09-09T05:44:30;16.20;99.90
10263;DHT22;5177;50.068;8.156;2022-09-09T05:46:55;16.20;99.90
10263;DHT22;5177;50.068;8.156;2022-09-09T05:49:21;16.20;99.90
10263;DHT22;5177;50.068;8.156;2022-09-09T05:51:46;16.20;99.90
10263;DHT22;5177;50.068;8.156;2022-09-09T05:54:13;16.20;99.90
10263;DHT22;5177;50.068;8.156;2022-09-09T05:56:40;16.30;99.90
10263;DHT22;5177;50.068;8.156;2022-09-09T05:59:06;16.30;99.90
10263;DHT22;5177;50.068;8.156;2022-09-09T06:01:33;16.30;99.90
10263;DHT22;5177;50.068;8.156;2022-09-09T06:03:58;16.30;99.90
10263;DHT22;5177;50.068;8.156;2022-09-09T06:06:25;16.40;99.90
10263;DHT22;5177;50.068;8.156;2022-09-09T06:08:51;16.40;99.90
10263;DHT22;5177;50.068;8.156;2022-09-09T06:11:18;16.50;99.90
10263;DHT22;5177;50.068;8.156;2022-09-09T06:13:45;16.50;99.90
10263;DHT22;5177;50.068;8.156;2022-09-09T06:16:11;16.60;99.90
10263;DHT22;5177;50.068;8.156;2022-09-09T06:18:38;16.70;99.90
10263;DHT22;5177;50.068;8.156;2022-09-09T06:21:04;16.80;99.90
10263;DHT22;5177;50.068;8.156;2022-09-09T06:23:32;16.90;99.90
10263;DHT22;5177;50.068;8.156;2022-09-09T06:26:11;17.00;99.90
10263;DHT22;5177;50.068;8.156;2022-09-09T06:28:36;17.10;99.90
10263;DHT22;5177;50.068;8.156;2022-09-09T06:31:03;17.20;99.90
10263;DHT22;5177;50.068;8.156;2022-09-09T06:33:36;17.40;99.90
10263;DHT22;5177;50.068;8.156;2022-09-09T06:36:02;17.40;99.90
10263;DHT22;5177;50.068;8.156;2022-09-09T06:38:29;17.40;99.90
10263;DHT22;5177;50.068;8.156;2022-09-09T06:40:54;17.50;99.90
10263;DHT22;5177;50.068;8.156;2022-09-09T06:43:30;17.50;99.90
10263;DHT22;5177;50.068;8.156;2022-09-09T06:45:57;17.40;99.90
10263;DHT22;5177;50.068;8.156;2022-09-09T06:48:23;17.40;99.90
10263;DHT22;5177;50.068;8.156;2022-09-09T06:50:48;17.40;99.90
10263;DHT22;5177;50.068;8.156;2022-09-09T06:53:17;17.40;99.90
10263;DHT22;5177;50.068;8.156;2022-09-09T06:55:44;17.40;99.90
10263;DHT22;5177;50.068;8.156;2022-09-09T06:58:10;17.40;99.90
10263;DHT22;5177;50.068;8.156;2022-09-09T07:00:36;17.40;99.90
10263;DHT22;5177;50.068;8.156;2022-09-09T07:03:04;17.40;99.90
10263;DHT22;5177;50.068;8.156;2022-09-09T07:05:29;17.40;99.90
10263;DHT22;5177;50.068;8.156;2022-09-09T07:07:54;17.40;99.90
10263;DHT22;5177;50.068;8.156;2022-09-09T07:10:20;17.40;99.90
10263;DHT22;5177;50.068;8.156;2022-09-09T07:12:50;17.50;99.90
10263;DHT22;5177;50.068;8.156;2022-09-09T07:15:15;17.30;99.90
10263;DHT22;5177;50.068;8.156;2022-09-09T07:17:41;17.40;99.90
10263;DHT22;5177;50.068;8.156;2022-09-09T07:20:06;17.40;99.90
10263;DHT22;5177;50.068;8.156;2022-09-09T07:22:32;17.40;99.90
10263;DHT22;5177;50.068;8.156;2022-09-09T07:24:58;17.50;99.90
10263;DHT22;5177;50.068;8.156;2022-09-09T07:27:23;17.60;99.90
10263;DHT22;5177;50.068;8.156;2022-09-09T07:29:49;17.70;99.90
10263;DHT22;5177;50.068;8.156;2022-09-09T07:32:14;17.80;99.90
10263;DHT22;5177;50.068;8.156;2022-09-09T07:34:40;17.90;99.90
10263;DHT22;5177;50.068;8.156;2022-09-09T07:37:06;18.00;99.90
10263;DHT22;5177;50.068;8.156;2022-09-09T07:39:31;18.00;99.90
10263;DHT22;5177;50.068;8.156;2022-09-09T07:41:57;17.90;99.90
10263;DHT22;5177;50.068;8.156;2022-09-09T07:44:23;18.00;99.90
10263;DHT22;5177;50.068;8.156;2022-09-09T07:46:52;18.00;99.90
10263;DHT22;5177;50.068;8.156;2022-09-09T07:49:18;18.00;99.90
10263;DHT22;5177;50.068;8.156;2022-09-09T07:51:44;18.30;99.90
10263;DHT22;5177;50.068;8.156;2022-09-09T07:54:13;18.40;99.90
10263;DHT22;5177;50.068;8.156;2022-09-09T07:56:39;18.50;99.90
10263;DHT22;5177;50.068;8.156;2022-09-09T07:59:04;18.70;99.90
10263;DHT22;5177;50.068;8.156;2022-09-09T08:01:32;18.80;99.90
10263;DHT22;5177;50.068;8.156;2022-09-09T08:04:08;18.90;99.90
10263;DHT22;5177;50.068;8.156;2022-09-09T08:06:36;19.20;99.90
10263;DHT22;5177;50.068;8.156;2022-09-09T08:09:02;19.50;99.90
10263;DHT22;5177;50.068;8.156;2022-09-09T08:11:29;19.60;93.00
10263;DHT22;5177;50.068;8.156;2022-09-09T08:13:55;19.50;85.00
10263;DHT22;5177;50.068;8.156;2022-09-09T08:16:24;19.50;96.10
10263;DHT22;5177;50.068;8.156;2022-09-09T08:18:49;19.40;95.60
10263;DHT22;5177;50.068;8.156;2022-09-09T08:21:16;19.30;98.20
10263;DHT22;5177;50.068;8.156;2022-09-09T08:23:43;19.30;92.50
10263;DHT22;5177;50.068;8.156;2022-09-09T08:26:14;19.30;99.90
10263;DHT22;5177;50.068;8.156;2022-09-09T08:28:40;19.20;99.90
10263;DHT22;5177;50.068;8.156;2022-09-09T08:31:18;19.30;99.90
10263;DHT22;5177;50.068;8.156;2022-09-09T08:33:44;19.20;99.90
10263;DHT22;5177;50.068;8.156;2022-09-09T08:36:12;19.40;99.90
10263;DHT22;5177;50.068;8.156;2022-09-09T08:38:38;19.50;99.90
10263;DHT22;5177;50.068;8.156;2022-09-09T08:41:07;19.60;93.30
10263;DHT22;5177;50.068;8.156;2022-09-09T08:43:36;19.60;90.90
10263;DHT22;5177;50.068;8.156;2022-09-09T08:46:12;19.50;92.60
10263;DHT22;5177;50.068;8.156;2022-09-09T08:48:56;19.50;93.20
10263;DHT22;5177;50.068;8.156;2022-09-09T08:51:25;19.40;99.90
10263;DHT22;5177;50.068;8.156;2022-09-09T08:53:51;19.50;98.80
10263;DHT22;5177;50.068;8.156;2022-09-09T08:56:18;19.50;92.10
10263;DHT22;5177;50.068;8.156;2022-09-09T08:58:51;19.70;89.70
10263;DHT22;5177;50.068;8.156;2022-09-09T09:09:36;20.70;1.00
10263;DHT22;5177;50.068;8.156;2022-09-09T09:12:08;21.10;1.00
10263;DHT22;5177;50.068;8.156;2022-09-09T09:14:36;21.40;1.00
10263;DHT22;5177;50.068;8.156;2022-09-09T09:17:06;21.70;1.00
10263;DHT22;5177;50.068;8.156;2022-09-09T09:19:35;21.80;1.00
10263;DHT22;5177;50.068;8.156;2022-09-09T09:22:17;21.50;1.00
10263;DHT22;5177;50.068;8.156;2022-09-09T09:27:16;21.40;1.00
10263;DHT22;5177;50.068;8.156;2022-09-09T09:29:43;21.30;1.00
10263;DHT22;5177;50.068;8.156;2022-09-09T09:32:14;21.10;1.00
10263;DHT22;5177;50.068;8.156;2022-09-09T09:34:41;20.80;1.00
10263;DHT22;5177;50.068;8.156;2022-09-09T09:37:12;20.90;1.00
10263;DHT22;5177;50.068;8.156;2022-09-09T09:39:42;20.90;1.00
10263;DHT22;5177;50.068;8.156;2022-09-09T09:42:09;21.00;1.00
10263;DHT22;5177;50.068;8.156;2022-09-09T09:44:36;21.00;1.00
10263;DHT22;5177;50.068;8.156;2022-09-09T09:47:10;21.40;1.00
10263;DHT22;5177;50.068;8.156;2022-09-09T09:49:37;21.70;1.00
10263;DHT22;5177;50.068;8.156;2022-09-09T09:52:03;21.60;1.00
10263;DHT22;5177;50.068;8.156;2022-09-09T09:54:30;21.60;1.00
10263;DHT22;5177;50.068;8.156;2022-09-09T09:56:56;21.30;99.90
10263;DHT22;5177;50.068;8.156;2022-09-09T09:59:33;21.10;1.00
10263;DHT22;5177;50.068;8.156;2022-09-09T10:02:16;21.40;99.90
10263;DHT22;5177;50.068;8.156;2022-09-09T10:04:42;21.80;99.90
10263;DHT22;5177;50.068;8.156;2022-09-09T10:07:20;22.00;1.00
10263;DHT22;5177;50.068;8.156;2022-09-09T10:09:48;22.00;1.00
10263;DHT22;5177;50.068;8.156;2022-09-09T10:12:29;21.80;1.00
10263;DHT22;5177;50.068;8.156;2022-09-09T10:23:21;22.30;1.00
10263;DHT22;5177;50.068;8.156;2022-09-09T10:30:55;22.40;52.40
10263;DHT22;5177;50.068;8.156;2022-09-09T10:36:12;22.60;1.00
10263;DHT22;5177;50.068;8.156;2022-09-09T10:38:39;22.70;99.90
10263;DHT22;5177;50.068;8.156;2022-09-09T10:41:10;22.90;99.90
10263;DHT22;5177;50.068;8.156;2022-09-09T10:46:21;23.00;1.00
10263;DHT22;5177;50.068;8.156;2022-09-09T10:57:48;23.60;99.90
10263;DHT22;5177;50.068;8.156;2022-09-09T10:59:56;23.40;99.90
10263;DHT22;5177;50.068;8.156;2022-09-09T11:02:26;23.70;99.90
10263;DHT22;5177;50.068;8.156;2022-09-09T11:04:53;23.90;99.90
10263;DHT22;5177;50.068;8.156;2022-09-09T11:07:33;24.10;99.90
10263;DHT22;5177;50.068;8.156;2022-09-09T11:10:01;24.40;99.90
10263;DHT22;5177;50.068;8.156;2022-09-09T11:12:28;24.30;1.00
10263;DHT22;5177;50.068;8.156;2022-09-09T11:14:55;24.00;1.00
10263;DHT22;5177;50.068;8.156;2022-09-09T11:17:26;24.40;1.00
10263;DHT22;5177;50.068;8.156;2022-09-09T11:19:52;24.40;1.00
10263;DHT22;5177;50.068;8.156;2022-09-09T11:25:05;24.70;1.00
10263;DHT22;5177;50.068;8.156;2022-09-09T11:27:37;24.60;1.00
10263;DHT22;5177;50.068;8.156;2022-09-09T11:37:53;24.20;1.00
10263;DHT22;5177;50.068;8.156;2022-09-09T11:40:31;24.10;80.20
10263;DHT22;5177;50.068;8.156;2022-09-09T11:45:43;23.80;99.90
10263;DHT22;5177;50.068;8.156;2022-09-09T11:48:58;23.80;99.90
10263;DHT22;5177;50.068;8.156;2022-09-09T11:51:11;23.60;99.90
10263;DHT22;5177;50.068;8.156;2022-09-09T11:56:43;23.10;99.90
10263;DHT22;5177;50.068;8.156;2022-09-09T11:59:25;22.80;1.00
10263;DHT22;5177;50.068;8.156;2022-09-09T12:05:07;22.40;1.00
10263;DHT22;5177;50.068;8.156;2022-09-09T12:07:40;22.40;99.90
10263;DHT22;5177;50.068;8.156;2022-09-09T12:12:34;22.20;1.00
10263;DHT22;5177;50.068;8.156;2022-09-09T12:15:01;22.10;1.00
10263;DHT22;5177;50.068;8.156;2022-09-09T12:17:29;21.50;99.90
10263;DHT22;5177;50.068;8.156;2022-09-09T12:20:03;20.70;1.00
10263;DHT22;5177;50.068;8.156;2022-09-09T12:22:39;20.10;23.60
10263;DHT22;5177;50.068;8.156;2022-09-09T12:25:16;19.90;59.20
10263;DHT22;5177;50.068;8.156;2022-09-09T12:27:46;19.70;52.50
10263;DHT22;5177;50.068;8.156;2022-09-09T12:30:15;19.60;99.40
10263;DHT22;5177;50.068;8.156;2022-09-09T12:32:41;19.50;99.90
10263;DHT22;5177;50.068;8.156;2022-09-09T12:35:24;19.50;99.90
10263;DHT22;5177;50.068;8.156;2022-09-09T12:37:52;19.50;23.10
10263;DHT22;5177;50.068;8.156;2022-09-09T12:42:47;19.30;45.90
10263;DHT22;5177;50.068;8.156;2022-09-09T12:45:17;19.30;99.90
10263;DHT22;5177;50.068;8.156;2022-09-09T12:50:21;19.80;99.90
10263;DHT22;5177;50.068;8.156;2022-09-09T12:52:48;20.00;99.90
10263;DHT22;5177;50.068;8.156;2022-09-09T12:55:21;20.00;34.00
10263;DHT22;5177;50.068;8.156;2022-09-09T12:57:50;19.80;14.40
10263;DHT22;5177;50.068;8.156;2022-09-09T13:00:21;20.00;1.00
10263;DHT22;5177;50.068;8.156;2022-09-09T13:02:49;20.10;1.00
10263;DHT22;5177;50.068;8.156;2022-09-09T13:05:16;20.70;1.00
10263;DHT22;5177;50.068;8.156;2022-09-09T13:07:43;21.10;99.90
10263;DHT22;5177;50.068;8.156;2022-09-09T13:10:13;21.40;1.00
10263;DHT22;5177;50.068;8.156;2022-09-09T13:12:39;21.60;99.90
10263;DHT22;5177;50.068;8.156;2022-09-09T13:15:05;21.90;1.00
10263;DHT22;5177;50.068;8.156;2022-09-09T13:17:36;22.20;99.90
10263;DHT22;5177;50.068;8.156;2022-09-09T13:20:01;22.40;99.90
10263;DHT22;5177;50.068;8.156;2022-09-09T13:22:31;22.60;1.00
10263;DHT22;5177;50.068;8.156;2022-09-09T13:25:06;22.80;99.90
10263;DHT22;5177;50.068;8.156;2022-09-09T13:27:33;22.80;1.00
10263;DHT22;5177;50.068;8.156;2022-09-09T13:29:59;23.10;1.00
10263;DHT22;5177;50.068;8.156;2022-09-09T13:32:26;22.90;1.00
10263;DHT22;5177;50.068;8.156;2022-09-09T13:34:57;22.90;99.90
10263;DHT22;5177;50.068;8.156;2022-09-09T13:39:51;22.40;1.00
10263;DHT22;5177;50.068;8.156;2022-09-09T13:42:27;22.00;99.90
10263;DHT22;5177;50.068;8.156;2022-09-09T13:44:53;21.80;1.00
10263;DHT22;5177;50.068;8.156;2022-09-09T13:47:20;21.70;1.00
10263;DHT22;5177;50.068;8.156;2022-09-09T13:49:46;21.40;1.00
10263;DHT22;5177;50.068;8.156;2022-09-09T13:52:13;21.10;89.70
10263;DHT22;5177;50.068;8.156;2022-09-09T13:54:39;20.90;99.90
10263;DHT22;5177;50.068;8.156;2022-09-09T13:57:04;20.70;1.20
10263;DHT22;5177;50.068;8.156;2022-09-09T13:59:30;20.50;99.90
10263;DHT22;5177;50.068;8.156;2022-09-09T14:01:57;20.50;1.00
10263;DHT22;5177;50.068;8.156;2022-09-09T14:04:22;20.50;99.90
10263;DHT22;5177;50.068;8.156;2022-09-09T14:06:48;20.50;46.70
10263;DHT22;5177;50.068;8.156;2022-09-09T14:09:15;20.50;99.90
10263;DHT22;5177;50.068;8.156;2022-09-09T14:11:41;20.30;99.90
10263;DHT22;5177;50.068;8.156;2022-09-09T14:14:06;20.20;1.00
10263;DHT22;5177;50.068;8.156;2022-09-09T14:16:32;20.10;1.00
10263;DHT22;5177;50.068;8.156;2022-09-09T14:18:58;19.90;1.00
10263;DHT22;5177;50.068;8.156;2022-09-09T14:21:24;19.90;1.00
10263;DHT22;5177;50.068;8.156;2022-09-09T14:23:50;20.00;1.00
10263;DHT22;5177;50.068;8.156;2022-09-09T14:26:16;20.00;1.00
10263;DHT22;5177;50.068;8.156;2022-09-09T14:28:41;20.10;1.00
10263;DHT22;5177;50.068;8.156;2022-09-09T14:31:07;20.10;1.00
10263;DHT22;5177;50.068;8.156;2022-09-09T14:33:32;20.20;1.00
10263;DHT22;5177;50.068;8.156;2022-09-09T14:36:01;20.10;1.00
10263;DHT22;5177;50.068;8.156;2022-09-09T14:38:31;20.20;1.00
10263;DHT22;5177;50.068;8.156;2022-09-09T14:40:59;20.20;1.00
10263;DHT22;5177;50.068;8.156;2022-09-09T14:43:24;20.20;1.00
10263;DHT22;5177;50.068;8.156;2022-09-09T14:45:50;20.30;1.00
10263;DHT22;5177;50.068;8.156;2022-09-09T14:48:19;20.10;1.00
10263;DHT22;5177;50.068;8.156;2022-09-09T14:50:44;20.10;1.00
10263;DHT22;5177;50.068;8.156;2022-09-09T14:53:10;20.20;4.60
10263;DHT22;5177;50.068;8.156;2022-09-09T14:55:36;20.30;34.20
10263;DHT22;5177;50.068;8.156;2022-09-09T14:58:02;20.40;44.80
10263;DHT22;5177;50.068;8.156;2022-09-09T15:00:27;20.30;43.60
10263;DHT22;5177;50.068;8.156;2022-09-09T15:02:53;20.30;67.40
10263;DHT22;5177;50.068;8.156;2022-09-09T15:05:19;20.70;4.00
10263;DHT22;5177;50.068;8.156;2022-09-09T15:07:45;21.30;1.00
10263;DHT22;5177;50.068;8.156;2022-09-09T15:10:10;22.30;1.00
10263;DHT22;5177;50.068;8.156;2022-09-09T15:12:36;23.50;99.90
10263;DHT22;5177;50.068;8.156;2022-09-09T15:15:02;24.60;99.90
10263;DHT22;5177;50.068;8.156;2022-09-09T15:17:28;25.20;1.00
10263;DHT22;5177;50.068;8.156;2022-09-09T15:19:53;26.50;99.90
10263;DHT22;5177;50.068;8.156;2022-09-09T15:22:20;27.60;99.90
10263;DHT22;5177;50.068;8.156;2022-09-09T15:24:45;27.20;99.90
10263;DHT22;5177;50.068;8.156;2022-09-09T15:27:11;26.40;1.00
10263;DHT22;5177;50.068;8.156;2022-09-09T15:29:37;25.40;1.00
10263;DHT22;5177;50.068;8.156;2022-09-09T15:32:04;25.20;1.00
10263;DHT22;5177;50.068;8.156;2022-09-09T15:34:29;25.10;1.00
10263;DHT22;5177;50.068;8.156;2022-09-09T15:36:55;24.70;1.00
10263;DHT22;5177;50.068;8.156;2022-09-09T15:39:20;24.10;99.90
10263;DHT22;5177;50.068;8.156;2022-09-09T15:41:47;23.60;38.80
10263;DHT22;5177;50.068;8.156;2022-09-09T15:44:13;22.70;1.00
10263;DHT22;5177;50.068;8.156;2022-09-09T15:46:43;22.20;99.90
10263;DHT22;5177;50.068;8.156;2022-09-09T15:49:10;21.90;1.00
10263;DHT22;5177;50.068;8.156;2022-09-09T15:51:37;21.50;1.00
10263;DHT22;5177;50.068;8.156;2022-09-09T15:54:04;21.20;1.00
10263;DHT22;5177;50.068;8.156;2022-09-09T15:56:30;20.90;1.00
10263;DHT22;5177;50.068;8.156;2022-09-09T15:58:56;20.70;1.00
10263;DHT22;5177;50.068;8.156;2022-09-09T16:01:22;20.40;1.00
10263;DHT22;5177;50.068;8.156;2022-09-09T16:03:48;20.30;1.00
10263;DHT22;5177;50.068;8.156;2022-09-09T16:06:18;20.20;1.00
10263;DHT22;5177;50.068;8.156;2022-09-09T16:08:47;20.00;1.00
10263;DHT22;5177;50.068;8.156;2022-09-09T16:11:16;20.00;1.00
10263;DHT22;5177;50.068;8.156;2022-09-09T16:13:43;19.90;1.00
10263;DHT22;5177;50.068;8.156;2022-09-09T16:16:10;19.80;1.00
10263;DHT22;5177;50.068;8.156;2022-09-09T16:18:36;19.90;1.00
10263;DHT22;5177;50.068;8.156;2022-09-09T16:21:03;19.90;1.00
10263;DHT22;5177;50.068;8.156;2022-09-09T16:23:36;19.90;1.00
10263;DHT22;5177;50.068;8.156;2022-09-09T16:26:01;19.90;1.00
10263;DHT22;5177;50.068;8.156;2022-09-09T16:28:28;19.90;1.00
10263;DHT22;5177;50.068;8.156;2022-09-09T16:30:53;19.80;1.00
10263;DHT22;5177;50.068;8.156;2022-09-09T16:33:19;19.70;1.00
10263;DHT22;5177;50.068;8.156;2022-09-09T16:35:44;19.70;1.00
10263;DHT22;5177;50.068;8.156;2022-09-09T16:38:10;19.70;1.00
10263;DHT22;5177;50.068;8.156;2022-09-09T16:40:36;19.70;1.00
10263;DHT22;5177;50.068;8.156;2022-09-09T16:43:02;19.70;1.00
10263;DHT22;5177;50.068;8.156;2022-09-09T16:45:28;19.60;1.00
10263;DHT22;5177;50.068;8.156;2022-09-09T16:47:54;19.50;1.00
10263;DHT22;5177;50.068;8.156;2022-09-09T16:50:19;19.60;1.00
10263;DHT22;5177;50.068;8.156;2022-09-09T16:52:45;19.50;1.00
10263;DHT22;5177;50.068;8.156;2022-09-09T16:55:10;19.30;14.60
10263;DHT22;5177;50.068;8.156;2022-09-09T16:57:36;19.30;32.30
10263;DHT22;5177;50.068;8.156;2022-09-09T17:00:03;19.20;39.10
10263;DHT22;5177;50.068;8.156;2022-09-09T17:02:30;19.20;56.10
10263;DHT22;5177;50.068;8.156;2022-09-09T17:04:55;19.20;54.30
10263;DHT22;5177;50.068;8.156;2022-09-09T17:07:21;19.20;85.40
10263;DHT22;5177;50.068;8.156;2022-09-09T17:09:48;19.20;92.20
10263;DHT22;5177;50.068;8.156;2022-09-09T17:12:14;19.20;92.00
10263;DHT22;5177;50.068;8.156;2022-09-09T17:14:41;19.00;76.30
10263;DHT22;5177;50.068;8.156;2022-09-09T17:17:07;18.90;63.00
10263;DHT22;5177;50.068;8.156;2022-09-09T17:19:32;18.70;98.10
10263;DHT22;5177;50.068;8.156;2022-09-09T17:21:58;18.60;99.90
10263;DHT22;5177;50.068;8.156;2022-09-09T17:24:24;18.40;99.90
10263;DHT22;5177;50.068;8.156;2022-09-09T17:26:51;18.20;99.90
10263;DHT22;5177;50.068;8.156;2022-09-09T17:29:17;18.10;99.90
10263;DHT22;5177;50.068;8.156;2022-09-09T17:31:43;18.10;99.90
10263;DHT22;5177;50.068;8.156;2022-09-09T17:34:08;18.00;99.90
10263;DHT22;5177;50.068;8.156;2022-09-09T17:36:34;17.90;99.90